Terminal Aerodrome Forecast
Issued by NWS

Home | Current Version | Previous Version | Text Only | Print | Product List | Glossary On
Versions: 1 2 3 4 5 6 7 8 9 10 11 12 13 14 15 16 17 18 19 20 21 22 23 24 25 26 27 28 29 30 31 32 33 34 35 36 37 38 39 40 41 42 43 44 45 46
000
FTUS43 KGRB 011100
TAFRHI
TAF
KRHI 011137Z 0112/0212 13008KT P6SM VCSH BKN110
     FM011700 16013G22KT P6SM BKN110
     FM020000 20011G17KT P6SM SCT035 BKN070 WS012/21040KT
      TEMPO 0205/0209 4SM -SHRA BR BKN020 OVC040
     FM020900 27010G17KT 4SM SHRA BR BKN015 OVC035=

USA.gov is the U.S. government's official web portal to all federal, state and local government web resources and services.